地図

経路データ

SID SEASON NUMBER BASIN SUBBASIN NAME ISO_TIME NATURE LAT LON WMO_WIND WMO_PRES WMO_AGENCY TRACK_TYPE DIST2LAND LANDFALL IFLAG USA_AGENCY USA_ATCF_ID USA_LAT USA_LON USA_RECORD USA_STATUS USA_WIND USA_PRES USA_SSHS USA_R34_NE USA_R34_SE USA_R34_SW USA_R34_NW USA_R50_NE USA_R50_SE USA_R50_SW USA_R50_NW USA_R64_NE USA_R64_SE USA_R64_SW USA_R64_NW USA_POCI USA_ROCI USA_RMW USA_EYE TOKYO_LAT TOKYO_LON TOKYO_GRADE TOKYO_WIND TOKYO_PRES TOKYO_R50_DIR TOKYO_R50_LONG TOKYO_R50_SHORT TOKYO_R30_DIR TOKYO_R30_LONG TOKYO_R30_SHORT TOKYO_LAND CMA_LAT CMA_LON CMA_CAT CMA_WIND CMA_PRES HKO_LAT HKO_LON HKO_CAT HKO_WIND HKO_PRES NEWDELHI_LAT NEWDELHI_LON NEWDELHI_GRADE NEWDELHI_WIND NEWDELHI_PRES NEWDELHI_CI NEWDELHI_DP NEWDELHI_POCI REUNION_LAT REUNION_LON REUNION_TYPE REUNION_WIND REUNION_PRES REUNION_TNUM REUNION_CI REUNION_RMW REUNION_R34_NE REUNION_R34_SE REUNION_R34_SW REUNION_R34_NW REUNION_R50_NE REUNION_R50_SE REUNION_R50_SW REUNION_R50_NW REUNION_R64_NE REUNION_R64_SE REUNION_R64_SW REUNION_R64_NW BOM_LAT BOM_LON BOM_TYPE BOM_WIND BOM_PRES BOM_TNUM BOM_CI BOM_RMW BOM_R34_NE BOM_R34_SE BOM_R34_SW BOM_R34_NW BOM_R50_NE BOM_R50_SE BOM_R50_SW BOM_R50_NW BOM_R64_NE BOM_R64_SE BOM_R64_SW BOM_R64_NW BOM_ROCI BOM_POCI BOM_EYE BOM_POS_METHOD BOM_PRES_METHOD NADI_LAT NADI_LON NADI_CAT NADI_WIND NADI_PRES WELLINGTON_LAT WELLINGTON_LON WELLINGTON_WIND WELLINGTON_PRES DS824_LAT DS824_LON DS824_STAGE DS824_WIND DS824_PRES TD9636_LAT TD9636_LON TD9636_STAGE TD9636_WIND TD9636_PRES TD9635_LAT TD9635_LON TD9635_WIND TD9635_PRES TD9635_ROCI NEUMANN_LAT NEUMANN_LON NEUMANN_CLASS NEUMANN_WIND NEUMANN_PRES MLC_LAT MLC_LON MLC_CLASS MLC_WIND MLC_PRES USA_GUST BOM_GUST BOM_GUST_PER REUNION_GUST REUNION_GUST_PER USA_SEAHGT USA_SEARAD_NE USA_SEARAD_SE USA_SEARAD_SW USA_SEARAD_NW STORM_SPEED STORM_DIR
2017046S17137 2017 5 SP EA ALFRED 2017-02-15 06:00:00 NR -17.0000 137.100 15 1002 bom main 0 0 ______O_______ -1 -17.0000 137.100 10 15 1002 1.00000 1.00000 90 1006 7 7 45 45 17 302
2017046S17137 2017 5 SP EA ALFRED 2017-02-15 09:00:00 NR -16.5523 136.345 main 0 0 ______P_______ -1 -16.5523 136.345 10 15 1002 82 1007 12 313
2017046S17137 2017 5 SP EA ALFRED 2017-02-15 12:00:00 NR -16.2000 136.200 15 1003 bom main 0 0 ______O_______ -1 -16.2000 136.200 10 15 1003 1.00000 1.00000 75 1008 7 7 45 45 8 49
2017046S17137 2017 5 SP EA ALFRED 2017-02-15 15:00:00 NR -16.0071 136.998 main 0 0 ______P_______ -1 -16.0071 136.998 10 15 1002 75 1007 18 80
2017046S17137 2017 5 SP EA ALFRED 2017-02-15 18:00:00 NR -15.9000 138.000 15 1002 bom main 46 46 ______O_______ -1 -15.9000 138.000 20 15 1002 1.00000 1.00000 75 1006 7 7 45 45 15 82
2017046S17137 2017 5 SP EA ALFRED 2017-02-15 21:00:00 NR -15.8000 138.500 20 1002 bom main 96 96 ______O_______ -1 -15.8000 138.500 20 20 1002 1.00000 1.00000 75 1006 7 45 45 12 74
2017046S17137 2017 5 SP EA ALFRED 2017-02-16 00:00:00 TS -15.5600 139.220 25 1002 bom main 147 134 O_____O_______ jtwc_sh SH062017 -15.8000 139.300 TD 25 1004 -1 -15.5000 139.200 20 25 1002 1.50000 1.50000 59 1008 6 45 45 10 89
2017046S17137 2017 5 SP EA ALFRED 2017-02-16 03:00:00 TS -15.7903 139.495 main 134 109 P_____P_______ SH062017 -15.9625 139.412 TD 27 1002 -1 -15.7042 139.536 20 25 1001 64 1007 6 149
2017046S17137 2017 5 SP EA ALFRED 2017-02-16 06:00:00 TS -16.1000 139.557 25 1001 bom main 109 99 O_____O_______ jtwc_sh SH062017 -16.1000 139.500 TD 30 1000 -1 -16.1000 139.600 20 25 1001 2.00000 2.00000 70 1006 6 45 45 4 171
2017046S17137 2017 5 SP EA ALFRED 2017-02-16 09:00:00 TS -16.2112 139.570 main 99 84 P_____P_______ SH062017 -16.2000 139.537 TD 30 1000 -1 -16.2225 139.603 20 27 1000 70 1007 2 197
2017046S17137 2017 5 SP EA ALFRED 2017-02-16 12:00:00 TS -16.3000 139.500 30 999 bom main 84 70 O_____O_______ jtwc_sh SH062017 -16.3000 139.500 TD 30 1000 -1 1006 170 30 -16.3000 139.500 20 30 999 2.00000 2.00000 70 1008 6 45 45 3 215
2017046S17137 2017 5 SP EA ALFRED 2017-02-16 15:00:00 TS -16.4462 139.399 main 70 39 P_____P_______ SH062017 -16.4424 139.402 TD 32 998 -1 1006 160 30 -16.4499 139.395 20 32 996 80 1008 4 224
2017046S17137 2017 5 SP EA ALFRED 2017-02-16 18:00:00 TS -16.6000 139.200 35 994 bom main 39 22 O_____O_______ jtwc_sh SH062017 -16.6000 139.200 TS 35 996 0 75 60 15 15 1007 150 30 -16.6000 139.200 21 35 994 2.00000 2.00000 10 10 90 1008 6 49 49 6 241
2017046S17137 2017 5 SP EA ALFRED 2017-02-16 21:00:00 TS -16.7439 138.850 main 22 0 P_____P_______ SH062017 -16.7652 138.850 TS 35 996 0 47 37 15 17 1007 160 30 -16.7227 138.850 21 32 995 84 1009 7 250
2017046S17137 2017 5 SP EA ALFRED 2017-02-17 00:00:00 TS -16.8500 138.500 30 996 bom main 0 0 O_____O_______ jtwc_sh SH062017 -16.9000 138.500 TS 35 996 0 20 15 15 20 1007 170 30 -16.8000 138.500 20 30 996 2.50000 2.50000 79 1010 6 45 45 5 254
2017046S17137 2017 5 SP EA ALFRED 2017-02-17 03:00:00 TS -16.8861 138.335 main 0 0 P_____P_______ SH062017 -16.9724 138.335 TS 32 999 -1 1006 170 30 -16.7999 138.335 20 27 997 79 1009 3 260
2017046S17137 2017 5 SP EA ALFRED 2017-02-17 06:00:00 TS -16.9000 138.200 25 999 bom main 0 0 O_____O_______ jtwc_sh SH062017 -17.0000 138.200 TD 30 1002 -1 1006 170 30 -16.8000 138.200 20 25 999 2.00000 2.50000 79 1008 6 45 45 3 253
2017046S17137 2017 5 SP EA ALFRED 2017-02-17 09:00:00 TS -16.9836 137.999 main 0 0 P_____P_______ SH062017 -17.0298 138.003 TD 27 1003 -1 1006 170 30 -16.9374 137.995 20 25 1000 84 1009 5 258
2017046S17137 2017 5 SP EA ALFRED 2017-02-17 12:00:00 TS -17.0000 137.700 25 1002 bom main 0 0 O_____O_______ jtwc_sh SH062017 -17.0000 137.700 TD 25 1004 -1 1006 170 30 -17.0000 137.700 20 25 1002 1.50000 2.50000 90 1010 6 45 45 8 282
2017046S17137 2017 5 SP EA ALFRED 2017-02-17 15:00:00 TS -16.8228 137.228 main 0 0 P_____P_______ SH062017 -16.8728 137.200 TD 22 1004 -1 1006 170 25 -16.7727 137.257 20 25 1002 94 1009 10 294
2017046S17137 2017 5 SP EA ALFRED 2017-02-17 18:00:00 NR -16.6000 136.750 25 1002 bom main 0 0 O_____O_______ jtwc_sh SH062017 -16.7000 136.700 DB 20 1005 -3 1007 170 20 -16.5000 136.800 20 25 1002 1.50000 2.00000 99 1008 7 7 45 45 8 293
2017046S17137 2017 5 SP EA ALFRED 2017-02-17 21:00:00 NR -16.4999 136.423 main 0 0 P_____P_______ SH062017 -16.5498 136.398 DB 20 1005 -3 1007 170 20 -16.4499 136.448 20 22 1003 99 1009 6 291
2017046S17137 2017 5 SP EA ALFRED 2017-02-18 00:00:00 NR -16.4000 136.200 20 1004 bom main 0 0 O_____O_______ jtwc_sh SH062017 -16.4000 136.200 DB 20 1005 -3 1007 170 20 -16.4000 136.200 20 20 1004 1.50000 1.50000 99 1010 7 3 45 45 5 306
2017046S17137 2017 5 SP EA ALFRED 2017-02-18 03:00:00 NR -16.2149 136.015 main 0 0 P_____P_______ SH062017 -16.2500 136.013 DB 20 1005 -3 1006 172 20 -16.1799 136.017 20 20 1002 99 1008 5 329
2017046S17137 2017 5 SP EA ALFRED 2017-02-18 06:00:00 NR -16.0000 135.950 20 1001 bom main 0 0 O_____O_______ jtwc_sh SH062017 -16.1000 135.900 DB 20 1005 -3 1006 175 20 -15.9000 136.000 20 20 1001 1.50000 1.50000 99 1006 7 7 45 45 4 5
2017046S17137 2017 5 SP EA ALFRED 2017-02-18 09:00:00 NR -15.7851 136.064 main 0 0 P_____P_______ SH062017 -15.9500 135.878 DB 20 1005 -3 1006 175 20 -15.6202 136.250 20 22 1002 104 1007 5 31
2017046S17137 2017 5 SP EA ALFRED 2017-02-18 12:00:00 NR -15.6000 136.200 25 1003 bom main 0 0 O_____O_______ jtwc_sh SH062017 -15.8000 135.900 DB 20 1005 -3 1007 175 20 -15.4000 136.500 20 25 1003 1.50000 1.50000 110 1008 7 7 45 45 3 21
2017046S17137 2017 5 SP EA ALFRED 2017-02-18 15:00:00 NR -15.4925 136.180 main 0 0 P_____P_______ SH062017 -15.6500 135.900 DB 20 1005 -3 1007 175 20 -15.3350 136.460 20 25 1002 114 1007 2 333
2017046S17137 2017 5 SP EA ALFRED 2017-02-18 18:00:00 NR -15.4000 136.100 25 1001 bom main 0 0 O_____O_______ jtwc_sh SH062017 -15.5000 135.900 DB 20 1005 -3 1007 175 20 -15.3000 136.300 20 25 1001 2.00000 2.00000 119 1006 7 45 45 3 324
2017046S17137 2017 5 SP EA ALFRED 2017-02-18 21:00:00 NR -15.2582 136.006 main 0 0 P_____P_______ SH062017 -15.3425 135.885 DB 22 1004 -3 1006 175 20 -15.1739 136.126 20 27 1000 119 1007 3 335
2017046S17137 2017 5 SP EA ALFRED 2017-02-19 00:00:00 TS -15.1000 135.950 30 1000 bom main 22 15 O_____O_______ jtwc_sh SH062017 -15.2000 135.900 TD 25 1004 -1 1005 175 20 -15.0000 136.000 20 30 1000 2.00000 2.00000 119 1008 5 45 45 3 0
2017046S17137 2017 5 SP EA ALFRED 2017-02-19 03:00:00 TS -14.9387 135.989 30 998 bom main 39 39 P_____O_______ SH062017 -15.0775 135.978 TD 27 1002 -1 1006 175 20 -14.8000 136.000 21 30 998 2.00000 2.00000 119 1006 5 45 45 3 25
2017046S17137 2017 5 SP EA ALFRED 2017-02-19 06:00:00 TS -14.8000 136.100 35 996 bom main 54 54 O_____O_______ jtwc_sh SH062017 -15.0000 136.100 TD 30 1000 -1 1007 175 20 -14.6000 136.100 21 35 996 2.00000 2.00000 79 79 130 1006 5 49 49 4 48
2017046S17137 2017 5 SP EA ALFRED 2017-02-19 09:00:00 TS -14.6888 136.271 35 996 bom main 55 49 P_____V_______ SH062017 -14.9775 136.242 TD 32 998 -1 1007 175 20 -14.4000 136.300 21 35 996 2.00000 2.00000 59 68 79 50 119 1006 7 5 49 49 4 90
2017046S17137 2017 5 SP EA ALFRED 2017-02-19 12:00:00 TS -14.8000 136.500 40 995 bom main 57 55 O_____V_______ jtwc_sh SH062017 -15.0000 136.400 TS 35 996 0 1007 175 20 -14.6000 136.600 21 40 995 2.50000 2.50000 39 57 50 50 119 1008 7 5 55 55 4 115
2017046S17137 2017 5 SP EA ALFRED 2017-02-19 15:00:00 TS -14.8675 136.671 40 995 bom main 67 67 P_____V_______ SH062017 -15.0350 136.543 TS 37 994 0 1007 175 20 -14.7000 136.800 30 40 995 2.50000 2.50000 19 46 50 50 119 1008 7 5 55 55 4 124
2017046S17137 2017 5 SP EA ALFRED 2017-02-19 18:00:00 TS -15.0000 136.800 40 993 bom main 78 70 O_____O_______ jtwc_sh SH062017 -15.1000 136.700 TS 40 993 0 1007 175 20 -14.9000 136.900 30 40 993 3.00000 3.00000 19 35 35 50 50 110 1006 7 5 55 55 4 139
2017046S17137 2017 5 SP EA ALFRED 2017-02-19 21:00:00 TS -15.1850 136.957 45 990 bom main 74 74 P_____V_______ SH062017 -15.1700 136.915 TS 45 989 0 1007 175 20 -15.2000 137.000 30 45 990 3.00000 3.00000 19 35 35 50 50 110 1006 5 64 64 4 138
2017046S17137 2017 5 SP EA ALFRED 2017-02-19 22:00:00 TS -15.2021 136.992 50 987 bom main 74 74 P_____V_______ SH062017 -15.2042 136.985 TS 46 987 0 1007 175 20 -15.2000 137.000 30 50 987 3.50000 3.50000 19 35 35 50 50 110 1006 7 5 69 69 3 113
2017046S17137 2017 5 SP EA ALFRED 2017-02-19 23:00:00 TS -15.2235 137.049 50 987 bom main 74 70 P_____V_______ SH062017 -15.2469 137.048 TS 48 986 0 1007 175 20 -15.2000 137.050 30 50 987 3.50000 3.50000 19 35 35 50 50 119 1008 1 9 69 69 4 133
2017046S17137 2017 5 SP EA ALFRED 2017-02-20 00:00:00 TS -15.3000 137.100 50 987 bom main 70 61 O_____O_______ jtwc_sh SH062017 -15.3000 137.100 TS 50 985 0 50 45 40 40 1007 175 20 -15.3000 137.100 30 50 987 3.50000 3.50000 19 35 35 50 50 19 19 119 1008 9 69 69 6 148
2017046S17137 2017 5 SP EA ALFRED 2017-02-20 01:00:00 TS -15.3873 137.159 50 987 bom main 67 55 P_____V_______ SH062017 -15.3845 137.129 TS 50 985 0 50 45 40 40 1006 175 20 -15.3900 137.190 30 50 987 3.50000 3.50000 19 35 35 50 50 19 19 119 1008 1 9 69 69 6 153
2017046S17137 2017 5 SP EA ALFRED 2017-02-20 02:00:00 TS -15.4805 137.188 50 987 bom main 55 44 P_____V_______ SH062017 -15.4809 137.146 TS 50 985 0 50 45 40 40 1006 175 20 -15.4800 137.230 30 50 987 3.00000 3.50000 19 35 35 50 50 19 19 119 1008 1 9 69 69 6 162
2017046S17137 2017 5 SP EA ALFRED 2017-02-20 03:00:00 TS -15.5900 137.229 50 987 bom main 44 35 P_____V_______ SH062017 -15.5800 137.158 TS 50 985 0 50 45 40 40 1006 175 20 -15.6000 137.300 30 50 987 3.00000 3.50000 19 35 35 50 50 19 19 150 1008 7 9 69 69 4 159
2017046S17137 2017 5 SP EA ALFRED 2017-02-20 06:00:00 TS -15.7500 137.300 50 987 bom main 35 24 O_____O_______ jtwc_sh SH062017 -15.8000 137.200 TS 50 985 0 50 45 40 40 1005 175 20 -15.7000 137.400 30 50 987 3.00000 3.50000 19 35 50 39 50 19 19 119 1006 7 5 69 69 2 111
2017046S17137 2017 5 SP EA ALFRED 2017-02-20 09:00:00 TS -15.6688 137.443 40 991 bom main 39 39 P_____V_______ SH062017 -15.7375 137.335 TS 45 989 0 50 45 40 40 1006 175 20 -15.6000 137.550 30 40 991 2.50000 3.00000 17 64 39 50 119 1008 7 5 55 55 3 50
2017046S17137 2017 5 SP EA ALFRED 2017-02-20 12:00:00 TS -15.5500 137.550 35 996 bom main 70 70 O_____O_______ jtwc_sh SH062017 -15.6000 137.500 TS 40 993 0 50 45 40 40 1007 175 20 -15.5000 137.600 30 35 996 2.50000 3.00000 15 64 39 150 1010 5 49 49 2 56
2017046S17137 2017 5 SP EA ALFRED 2017-02-20 15:00:00 TS -15.5282 137.655 30 998 bom main 74 74 P_____O_______ SH062017 -15.5863 137.640 TS 37 994 0 50 45 40 40 1007 175 20 -15.4700 137.670 20 30 998 2.00000 2.50000 150 1010 7 7 45 45 2 86
2017046S17137 2017 5 SP EA ALFRED 2017-02-20 18:00:00 TS -15.5350 137.765 30 999 bom main 79 79 O_____O_______ jtwc_sh SH062017 -15.6000 137.800 TS 35 996 0 50 45 40 40 1007 175 20 -15.4700 137.730 20 30 999 1.50000 2.00000 150 1008 5 45 45 2 95
2017046S17137 2017 5 SP EA ALFRED 2017-02-20 21:00:00 TS -15.5500 137.900 25 1002 bom main 81 39 O_____O_______ jtwc_sh SH062017 -15.6000 138.000 TS 35 996 0 50 45 40 40 1007 175 20 -15.5000 137.800 20 25 1002 1.50000 1.50000 179 1010 7 45 45 5 154
2017046S17137 2017 5 SP EA ALFRED 2017-02-21 00:00:00 TS -16.0000 138.000 30 1003 bom main 39 15 O_____O_______ jtwc_sh SH062017 -16.0000 138.000 TD 30 1000 -1 1007 175 20 -16.0000 138.000 20 30 1003 2.00000 2.00000 179 1012 7 5 45 45 9 175
2017046S17137 2017 5 SP EA ALFRED 2017-02-21 03:00:00 TS -16.4386 137.993 main 15 0 P_____P_______ SH062017 -16.3522 137.950 TD 27 1002 -1 1007 175 20 -16.4818 138.015 20 30 1003 1012 8 187
2017046S17137 2017 5 SP EA ALFRED 2017-02-21 06:00:00 TS -16.7600 137.900 30 1004 bom main 0 0 O_____O_______ jtwc_sh SH062017 -16.6000 137.900 TD 25 1004 -1 1007 175 20 -16.8000 137.900 80 30 1004 2.00000 2.00000 1012 7 5 45 45 5 212
2017046S17137 2017 5 SP EA ALFRED 2017-02-21 09:00:00 NR -16.8400 137.735 main 0 0 ______P_______ SH062017 TD -1 -16.8400 137.735 80 30 1004 1012 3 282
2017046S17137 2017 5 SP EA ALFRED 2017-02-21 12:00:00 NR -16.7000 137.600 30 1004 bom main 0 0 ______O_______ -1 -16.7000 137.600 80 30 1004 1.00000 2.00000 1012 7 5 45 45 4 341
2017046S17137 2017 5 SP EA ALFRED 2017-02-21 15:00:00 NR -16.4925 137.613 main 0 0 ______P_______ -1 -16.4925 137.613 80 30 1004 1012 4 13
2017046S17137 2017 5 SP EA ALFRED 2017-02-21 18:00:00 NR -16.3000 137.700 30 1004 bom main 0 0 ______O_______ -1 -16.3000 137.700 80 30 1004 1.00000 2.00000 1012 7 5 45 45 3 31
2017046S17137 2017 5 SP EA ALFRED 2017-02-21 21:00:00 NR -16.2325 137.778 main 10 10 ______P_______ -1 -16.2325 137.778 80 27 1005 1012 2 90
2017046S17137 2017 5 SP EA ALFRED 2017-02-22 00:00:00 NR -16.3000 137.900 25 1006 bom main 15 15 ______O_______ -1 -16.3000 137.900 10 25 1006 1.00000 1.50000 1012 4 7 45 45 5 133
2017046S17137 2017 5 SP EA ALFRED 2017-02-22 03:00:00 NR -16.5351 138.122 main 15 0 ______P_______ -1 -16.5351 138.122 10 25 1005 1012 6 142
2017046S17137 2017 5 SP EA ALFRED 2017-02-22 06:00:00 NR -16.8000 138.300 25 1005 bom main 0 0 ______O_______ -1 -16.8000 138.300 10 25 1005 1012 7 7 45 45 4 157
2017046S17137 2017 5 SP EA ALFRED 2017-02-22 09:00:00 NR -16.9425 138.305 main 0 0 ______P_______ -1 -16.9425 138.305 10 25 1006 1012 2 207
2017046S17137 2017 5 SP EA ALFRED 2017-02-22 12:00:00 NR -17.0000 138.200 25 1007 bom main 0 ______O_______ -1 -17.0000 138.200 10 25 1007 1012 1 7 45 45 2 239

デジタル台風データ・検索

IBTrACS Databaseについて

本データベースは、米国NOAAが公開する1842年以降の世界の熱帯低気圧のベストトラックデータアーカイブInternational Best Track Archive for Climate Stewardship (IBTrACS)を、ウェブで閲覧しやすい形式に変換したものです。

最終更新日:2021-11-26